Automated Weather Station

Lita, Tayabas, Quezon


Readings

as of August 06, 2016 01:00 AM
Wind Speed
1.4 mm
Rainfall Amount
0 mm
Rainfall Intensity
0 mm
Air Temperature
mm
Wind Direction
293 mm
Air Humidity
88.4 mm

Data Source: PREDICT (Advanced Science and Technology Institute)

12 HOUR DATA

PREVIOUS DATA

From
To
DateTime Wind Speed Rain Amount Rain Intensity Air Temperature Air Pressure Wind Direction Air Humidity
October 30, 2013 07:00 AM 2.6 0 mm 0 25.6 994.02 327 68.1
October 30, 2013 06:00 AM 1.6 0 mm 0 22.7 993.88 289 81.2
October 30, 2013 05:00 AM 1.9 0 mm 0 23 992.82 303 80.3
October 30, 2013 04:00 AM 1.5 0 mm 0 23 992.42 295 80.1
October 30, 2013 03:00 AM 2.4 0 mm 0 23.4 992.68 308 79.5
October 30, 2013 02:00 AM 3.3 0 mm 0 24.1 992.82 330 78.4
October 30, 2013 01:00 AM 2.5 0 mm 0 23.9 993.49 310 78.1
October 30, 2013 12:00 AM 3 0 mm 0 24 994.28 343 77.2
October 29, 2013 11:00 PM 3 0 mm 0 24 995.08 347 77.9
October 29, 2013 10:00 PM 3.1 0 mm 0 24.1 995.22 331 75.8
October 29, 2013 09:00 PM 3.1 0 mm 0 24.1 995.22 345 76
October 29, 2013 08:00 PM 3 0 mm 0 24.2 995.22 336 75.3
October 29, 2013 07:00 PM 2.9 0 mm 0 24.5 994.68 350 75
October 29, 2013 06:00 PM 3 0 mm 0 24.9 994.15 345 74.2
October 29, 2013 05:00 PM 0 0 mm 0 0 0 0 0
October 29, 2013 04:00 PM 4.3 0.02 mm 0 26.3 993.22 8 69.6
October 29, 2013 03:00 PM 5.3 0 mm 0 26.9 993.35 20 68.2
October 29, 2013 02:15 PM 7.8 0 mm 0 27.6 993.22 13 63.1
October 29, 2013 02:00 PM 7.4 0 mm 0 27.9 993.22 18 62.2
October 29, 2013 01:45 PM 7.6 0 mm 0 28.4 993.35 37 60
October 29, 2013 01:30 PM 8.4 0 mm 0 28.2 993.49 12 60.7
October 29, 2013 01:15 PM 7.8 0 mm 0 27.5 993.75 20 62.7
October 29, 2013 01:00 PM 6.4 0 mm 0 28.5 993.88 28 64.4
October 29, 2013 12:45 PM 7.1 0 mm 0 27.6 994.02 20 64.3
October 29, 2013 12:30 PM 8.1 0 mm 0 28.3 994.42 17 61.1
October 29, 2013 12:15 PM 8.7 0 mm 0 28.5 994.55 36 61.7
October 29, 2013 12:00 PM 8.5 0 mm 0 28.7 994.68 33 60.2
October 29, 2013 11:45 AM 8.6 0 mm 0 28.1 994.82 39 62.2
October 29, 2013 11:30 AM 7.2 0 mm 0 28.4 995.08 31 61.3
October 29, 2013 11:15 AM 6.9 0 mm 0 28.4 995.22 34 62.3